createdAt,value
2022-09-05T00:00:34.872Z,22.91
2022-09-05T00:01:34.843Z,22.90
2022-09-05T00:02:34.966Z,22.93
2022-09-05T00:03:35.078Z,22.93
2022-09-05T00:04:34.912Z,22.93
2022-09-05T00:05:35.072Z,22.90
2022-09-05T00:06:34.786Z,22.91
2022-09-05T00:07:58.285Z,22.91
2022-09-05T00:08:35.763Z,22.93
2022-09-05T00:09:34.755Z,22.91
2022-09-05T00:10:36.189Z,22.91
2022-09-05T00:11:41.524Z,22.91
2022-09-05T00:12:35.719Z,22.91
2022-09-05T00:13:34.712Z,22.93
2022-09-05T00:15:14.295Z,22.91
2022-09-05T00:15:35.708Z,22.91
2022-09-05T00:16:34.677Z,22.91
2022-09-05T00:18:54.491Z,22.90
2022-09-05T00:21:10.471Z,22.90
2022-09-05T00:23:31.977Z,22.91
2022-09-05T00:24:19.714Z,22.93
2022-09-05T00:24:28.687Z,22.90
2022-09-05T00:24:28.938Z,22.91
2022-09-05T00:24:29.934Z,22.91
2022-09-05T00:24:50.215Z,22.93
2022-09-05T00:25:36.047Z,22.91
2022-09-05T00:26:34.568Z,22.91
2022-09-05T00:27:34.579Z,22.91
2022-09-05T00:28:34.547Z,22.91
2022-09-05T00:31:07.325Z,22.91
2022-09-05T00:31:07.466Z,22.93
2022-09-05T00:31:55.283Z,22.91
2022-09-05T00:32:35.731Z,22.93
2022-09-05T00:33:34.492Z,22.93
2022-09-05T00:34:47.006Z,22.91
2022-09-05T00:35:35.471Z,22.91
2022-09-05T00:36:34.459Z,22.91
2022-09-05T00:37:34.451Z,22.91
2022-09-05T00:38:36.906Z,22.93
2022-09-05T00:39:34.453Z,22.91
2022-09-05T00:40:34.499Z,22.91
2022-09-05T00:41:34.669Z,22.91
2022-09-05T00:42:34.394Z,22.91
2022-09-05T00:43:34.383Z,22.91
2022-09-05T00:44:34.372Z,22.93
2022-09-05T00:45:34.361Z,22.91
2022-09-05T00:46:34.452Z,22.93
2022-09-05T00:47:34.340Z,22.91
2022-09-05T00:48:34.349Z,22.90
2022-09-05T00:49:34.320Z,22.91
2022-09-05T00:50:34.306Z,22.91
2022-09-05T00:51:34.841Z,22.91
2022-09-05T00:52:34.287Z,22.93
2022-09-05T00:53:34.293Z,22.91
2022-09-05T00:54:41.033Z,22.91
2022-09-05T00:55:35.253Z,22.91
2022-09-05T00:56:34.272Z,22.91
2022-09-05T00:57:34.233Z,22.91
2022-09-05T00:58:34.349Z,22.91
2022-09-05T00:59:34.209Z,22.91
2022-09-05T01:00:34.204Z,22.91
2022-09-05T01:01:34.321Z,22.93
2022-09-05T01:02:36.463Z,22.90
2022-09-05T01:03:35.166Z,22.91
2022-09-05T01:04:34.156Z,22.93
2022-09-05T01:05:34.162Z,22.91
2022-09-05T01:06:34.135Z,22.91
2022-09-05T01:07:34.121Z,22.91
2022-09-05T01:08:34.113Z,22.93
2022-09-05T01:09:34.120Z,22.91
2022-09-05T01:10:34.089Z,22.91
2022-09-05T01:11:34.079Z,22.93
2022-09-05T01:12:34.091Z,22.93
2022-09-05T01:13:34.057Z,22.91
2022-09-05T01:14:34.051Z,22.90
2022-09-05T01:15:34.100Z,22.91
2022-09-05T01:16:34.026Z,22.91
2022-09-05T01:17:34.035Z,22.90
2022-09-05T01:18:34.005Z,22.91
2022-09-05T01:19:33.990Z,22.91
2022-09-05T01:20:37.759Z,22.91
2022-09-05T01:21:33.971Z,22.93
2022-09-05T01:22:33.958Z,22.91
2022-09-05T01:23:33.971Z,22.90
2022-09-05T01:24:33.936Z,22.91
2022-09-05T01:25:33.928Z,22.91
2022-09-05T01:26:33.914Z,22.91
2022-09-05T01:28:15.452Z,22.91
2022-09-05T01:29:16.063Z,22.91
2022-09-05T01:29:34.882Z,22.91
2022-09-05T01:30:33.883Z,22.91
2022-09-05T01:31:33.912Z,22.91
2022-09-05T01:32:33.848Z,22.90
2022-09-05T01:33:33.847Z,22.91
2022-09-05T01:34:33.846Z,22.91
2022-09-05T01:35:33.817Z,22.90
2022-09-05T01:36:33.805Z,22.91
2022-09-05T01:37:34.427Z,22.91
2022-09-05T01:38:33.786Z,22.91
2022-09-05T01:40:12.373Z,22.91
2022-09-05T01:40:34.796Z,22.91
2022-09-05T01:41:33.754Z,22.91
2022-09-05T01:42:33.759Z,22.91
2022-09-05T01:43:33.730Z,22.91
2022-09-05T01:44:33.719Z,22.91
2022-09-05T01:45:39.392Z,22.90
2022-09-05T01:46:34.831Z,22.93
2022-09-05T01:47:33.708Z,22.91
2022-09-05T01:48:33.675Z,22.91
2022-09-05T01:49:33.665Z,22.90
2022-09-05T01:50:33.653Z,22.90
2022-09-05T01:51:33.645Z,22.91
2022-09-05T01:52:33.651Z,22.90
2022-09-05T01:53:33.644Z,22.90
2022-09-05T01:54:33.610Z,22.90
2022-09-05T01:55:36.494Z,22.91
2022-09-05T01:56:34.587Z,22.90
2022-09-05T01:57:33.578Z,22.91
2022-09-05T01:58:33.586Z,22.90
2022-09-05T01:59:33.560Z,22.91
2022-09-05T02:00:33.544Z,22.91
2022-09-05T02:01:33.594Z,22.91
2022-09-05T02:02:33.677Z,22.90
2022-09-05T02:03:33.516Z,22.91
2022-09-05T02:04:33.501Z,22.91
2022-09-05T02:05:48.921Z,22.91
2022-09-05T02:06:34.478Z,22.91
2022-09-05T02:07:33.494Z,22.90
2022-09-05T02:08:33.458Z,22.90
2022-09-05T02:09:33.451Z,22.91
2022-09-05T02:10:33.436Z,22.91
2022-09-05T02:11:35.635Z,22.90
2022-09-05T02:12:33.414Z,22.91
2022-09-05T02:13:33.425Z,22.90
2022-09-05T02:14:34.050Z,22.90
2022-09-05T02:15:33.405Z,22.90
2022-09-05T02:16:33.372Z,22.90
2022-09-05T02:17:49.592Z,22.90
2022-09-05T02:18:34.368Z,22.90
2022-09-05T02:19:33.357Z,22.90
2022-09-05T02:20:33.327Z,22.91
2022-09-05T02:21:33.349Z,22.91
2022-09-05T02:22:33.305Z,22.90
2022-09-05T02:23:41.733Z,22.91
2022-09-05T02:24:34.281Z,22.91
2022-09-05T02:26:02.800Z,22.91
2022-09-05T02:26:34.283Z,22.91
2022-09-05T02:28:04.331Z,22.91
2022-09-05T02:28:34.239Z,22.90
2022-09-05T02:29:33.231Z,22.90
2022-09-05T02:30:33.220Z,22.91
2022-09-05T02:31:33.266Z,22.91
2022-09-05T02:32:33.196Z,22.91
2022-09-05T02:33:34.187Z,22.91
2022-09-05T02:34:33.178Z,22.90
2022-09-05T02:35:33.194Z,22.90
2022-09-05T02:36:33.153Z,22.91
2022-09-05T02:38:56.765Z,22.90
2022-09-05T02:42:04.595Z,22.91
2022-09-05T02:45:06.404Z,22.91
2022-09-05T02:45:08.247Z,22.91
2022-09-05T02:45:13.701Z,22.90
2022-09-05T02:45:17.797Z,22.91
2022-09-05T02:45:18.879Z,22.90
2022-09-05T02:45:19.794Z,22.90
2022-09-05T02:45:34.476Z,22.91
2022-09-05T02:46:33.150Z,22.90
2022-09-05T02:47:33.045Z,22.90
2022-09-05T02:48:33.023Z,22.90
2022-09-05T02:51:53.588Z,22.90
2022-09-05T02:54:24.111Z,22.90
2022-09-05T02:57:25.597Z,22.90
2022-09-05T02:57:27.591Z,22.90
2022-09-05T02:57:37.041Z,22.90
2022-09-05T02:57:38.173Z,22.88
2022-09-05T02:57:38.174Z,22.91
2022-09-05T02:57:42.663Z,22.90
2022-09-05T02:58:06.118Z,22.91
2022-09-05T02:58:53.350Z,22.91
2022-09-05T02:59:36.275Z,22.91
2022-09-05T03:00:32.918Z,22.91
2022-09-05T03:01:32.939Z,22.90
2022-09-05T03:02:32.901Z,22.90
2022-09-05T03:03:32.866Z,22.91
2022-09-05T03:04:32.849Z,22.91
2022-09-05T03:05:32.840Z,22.90
2022-09-05T03:06:34.883Z,22.88
2022-09-05T03:07:32.820Z,22.91
2022-09-05T03:08:32.807Z,22.90
2022-09-05T03:09:32.798Z,22.90
2022-09-05T03:10:39.639Z,22.90
2022-09-05T03:11:33.773Z,22.90
2022-09-05T03:12:32.762Z,22.90
2022-09-05T03:13:32.752Z,22.91
2022-09-05T03:14:32.741Z,22.90
2022-09-05T03:15:32.757Z,22.90
2022-09-05T03:16:32.788Z,22.90
2022-09-05T03:17:32.710Z,22.90
2022-09-05T03:18:33.237Z,22.91
2022-09-05T03:19:32.689Z,22.88
2022-09-05T03:20:32.675Z,22.90
2022-09-05T03:21:32.670Z,22.91
2022-09-05T03:22:36.869Z,22.90
2022-09-05T03:23:33.293Z,22.90
2022-09-05T03:24:32.653Z,22.90
2022-09-05T03:25:32.626Z,22.88
2022-09-05T03:26:32.610Z,22.91
2022-09-05T03:27:32.620Z,22.88
2022-09-05T03:28:32.607Z,22.90
2022-09-05T03:29:32.587Z,22.90
2022-09-05T03:30:32.601Z,22.90
2022-09-05T03:31:32.591Z,22.90
2022-09-05T03:32:32.547Z,22.90
2022-09-05T03:33:32.557Z,22.90
2022-09-05T03:34:32.523Z,22.90
2022-09-05T03:35:32.517Z,22.90
2022-09-05T03:36:32.505Z,22.90
2022-09-05T03:37:32.491Z,22.90
2022-09-05T03:38:32.500Z,22.90
2022-09-05T03:39:32.502Z,22.91
2022-09-05T03:40:32.477Z,22.90
2022-09-05T03:41:40.738Z,22.91
2022-09-05T03:42:33.436Z,22.90
2022-09-05T03:43:32.429Z,22.88
2022-09-05T03:44:32.418Z,22.91
2022-09-05T03:45:36.883Z,22.91
2022-09-05T03:46:33.394Z,22.90
2022-09-05T03:47:32.383Z,22.90
2022-09-05T03:48:32.392Z,22.91
2022-09-05T03:52:34.028Z,22.90
2022-09-05T03:53:28.043Z,22.90
2022-09-05T03:57:06.347Z,22.90
2022-09-05T03:57:07.148Z,22.90
2022-09-05T03:57:15.203Z,22.91
2022-09-05T03:57:16.383Z,22.90
2022-09-05T03:57:23.305Z,22.90
2022-09-05T03:57:26.006Z,22.90
2022-09-05T03:57:41.835Z,22.91
2022-09-05T03:59:00.827Z,22.90
2022-09-05T03:59:34.625Z,22.90
2022-09-05T04:00:32.241Z,22.90
2022-09-05T04:03:12.973Z,22.90
2022-09-05T04:04:14.307Z,22.88
2022-09-05T04:08:08.535Z,22.91
2022-09-05T04:08:14.986Z,22.88
2022-09-05T04:08:16.467Z,22.90
2022-09-05T04:08:16.627Z,22.90
2022-09-05T04:08:16.943Z,22.90
2022-09-05T04:08:41.271Z,22.90
2022-09-05T04:09:49.999Z,22.90
2022-09-05T04:10:33.313Z,22.90
2022-09-05T04:11:32.125Z,22.91
2022-09-05T04:12:32.112Z,22.91
2022-09-05T04:13:32.121Z,22.90
2022-09-05T04:14:32.207Z,22.88
2022-09-05T04:15:32.081Z,22.90
2022-09-05T04:16:32.156Z,22.90
2022-09-05T04:17:32.060Z,22.90
2022-09-05T04:18:33.790Z,22.90
2022-09-05T04:19:32.036Z,22.91
2022-09-05T04:20:32.025Z,22.91
2022-09-05T04:21:32.016Z,22.90
2022-09-05T04:22:32.023Z,22.90
2022-09-05T04:23:31.998Z,22.90
2022-09-05T04:24:32.001Z,22.90
2022-09-05T04:25:31.972Z,22.90
2022-09-05T04:26:31.959Z,22.90
2022-09-05T04:27:31.953Z,22.88
2022-09-05T04:28:31.938Z,22.90
2022-09-05T04:29:32.196Z,22.90
2022-09-05T04:30:39.707Z,22.90
2022-09-05T04:31:32.971Z,22.88
2022-09-05T04:32:31.934Z,22.90
2022-09-05T04:33:35.770Z,22.90
2022-09-05T04:34:32.896Z,22.88
2022-09-05T04:35:31.865Z,22.90
2022-09-05T04:36:31.851Z,22.90
2022-09-05T04:37:37.185Z,22.90
2022-09-05T04:38:32.849Z,22.90
2022-09-05T04:39:31.869Z,22.90
2022-09-05T04:40:33.022Z,22.90
2022-09-05T04:41:39.118Z,22.90
2022-09-05T04:42:32.785Z,22.88
2022-09-05T04:43:31.779Z,22.90
2022-09-05T04:44:31.767Z,22.88
2022-09-05T04:45:31.806Z,22.90
2022-09-05T04:46:31.812Z,22.88
2022-09-05T04:47:32.731Z,22.90
2022-09-05T04:48:31.721Z,22.88
2022-09-05T04:49:31.713Z,22.90
2022-09-05T04:50:37.846Z,22.90
2022-09-05T04:51:32.713Z,22.90
2022-09-05T04:52:31.960Z,22.88
2022-09-05T04:53:31.667Z,22.90
2022-09-05T04:54:31.658Z,22.90
2022-09-05T04:55:31.645Z,22.90
2022-09-05T04:56:31.634Z,22.90
2022-09-05T04:57:31.643Z,22.90
2022-09-05T04:58:56.944Z,22.88
2022-09-05T05:02:40.481Z,22.90
2022-09-05T05:06:00.245Z,22.90
2022-09-05T05:06:00.769Z,22.91
2022-09-05T05:06:04.358Z,22.90
2022-09-05T05:06:08.357Z,22.90
2022-09-05T05:06:09.240Z,22.88
2022-09-05T05:06:18.135Z,22.90
2022-09-05T05:06:45.023Z,22.90
2022-09-05T05:07:32.703Z,22.90
2022-09-05T05:08:38.646Z,22.90
2022-09-05T05:09:32.493Z,22.90
2022-09-05T05:12:19.806Z,22.90
2022-09-05T05:17:22.320Z,22.90
2022-09-05T05:17:55.550Z,22.88
2022-09-05T05:17:56.734Z,22.88
2022-09-05T05:18:06.721Z,22.90
2022-09-05T05:18:06.722Z,22.90
2022-09-05T05:18:11.816Z,22.90
2022-09-05T05:18:14.227Z,22.90
2022-09-05T05:18:42.274Z,22.88
2022-09-05T05:19:32.437Z,22.90
2022-09-05T05:20:42.937Z,22.88
2022-09-05T05:21:32.384Z,22.90
2022-09-05T05:22:31.354Z,22.88
2022-09-05T05:23:31.340Z,22.90
2022-09-05T05:24:31.332Z,22.91
2022-09-05T05:25:31.318Z,22.90
2022-09-05T05:26:31.332Z,22.88
2022-09-05T05:27:31.298Z,22.90
2022-09-05T05:28:31.286Z,22.90
2022-09-05T05:29:31.278Z,22.90
2022-09-05T05:30:31.265Z,22.90
2022-09-05T05:31:31.343Z,22.90
2022-09-05T05:32:45.523Z,22.90
2022-09-05T05:33:32.238Z,22.90
2022-09-05T05:34:31.223Z,22.91
2022-09-05T05:35:31.210Z,22.90
2022-09-05T05:36:31.224Z,22.91
2022-09-05T05:37:31.190Z,22.90
2022-09-05T05:38:31.177Z,22.90
2022-09-05T05:39:31.249Z,22.90
2022-09-05T05:40:31.727Z,22.90
2022-09-05T05:41:32.166Z,22.90
2022-09-05T05:42:31.138Z,22.88
2022-09-05T05:43:31.144Z,22.90
2022-09-05T05:44:31.112Z,22.90
2022-09-05T05:45:31.109Z,22.90
2022-09-05T05:46:31.197Z,22.90
2022-09-05T05:47:31.646Z,22.90
2022-09-05T05:48:31.089Z,22.90
2022-09-05T05:49:31.060Z,22.90
2022-09-05T05:50:31.047Z,22.90
2022-09-05T05:51:47.540Z,22.90
2022-09-05T05:52:32.045Z,22.90
2022-09-05T05:53:42.661Z,22.91
2022-09-05T05:54:32.004Z,22.90
2022-09-05T05:55:51.487Z,22.91
2022-09-05T05:56:31.982Z,22.91
2022-09-05T05:57:30.996Z,22.90
2022-09-05T05:58:32.923Z,22.90
2022-09-05T05:59:30.950Z,22.90
2022-09-05T06:00:31.015Z,22.91
2022-09-05T06:01:38.450Z,22.90
2022-09-05T06:02:32.075Z,22.90
2022-09-05T06:03:31.018Z,22.91
2022-09-05T06:04:30.896Z,22.91
2022-09-05T06:05:30.891Z,22.88
2022-09-05T06:06:30.915Z,22.91
2022-09-05T06:07:33.258Z,22.90
2022-09-05T06:14:51.883Z,22.91
2022-09-05T06:14:52.839Z,22.90
2022-09-05T06:14:54.843Z,22.90
2022-09-05T06:14:55.913Z,22.91
2022-09-05T06:14:56.829Z,22.90
2022-09-05T06:15:03.578Z,22.90
2022-09-05T06:15:04.723Z,22.90
2022-09-05T06:15:32.550Z,22.90
2022-09-05T06:16:30.838Z,22.91
2022-09-05T06:17:30.778Z,22.91
2022-09-05T06:18:30.743Z,22.91
2022-09-05T06:19:43.605Z,22.91
2022-09-05T06:22:06.137Z,22.91
2022-09-05T06:22:11.031Z,22.90
2022-09-05T06:22:31.699Z,22.91
2022-09-05T06:23:38.703Z,22.91
2022-09-05T06:24:31.676Z,22.90
2022-09-05T06:25:30.670Z,22.90
2022-09-05T06:26:30.676Z,22.90
2022-09-05T06:27:30.648Z,22.91
2022-09-05T06:28:30.636Z,22.90
2022-09-05T06:29:34.525Z,22.91
2022-09-05T06:30:31.613Z,22.91
2022-09-05T06:31:31.866Z,22.90
2022-09-05T06:32:30.591Z,22.90
2022-09-05T06:33:30.600Z,22.91
2022-09-05T06:34:32.957Z,22.91
2022-09-05T06:35:31.560Z,22.91
2022-09-05T06:36:30.549Z,22.90
2022-09-05T06:37:30.556Z,22.91
2022-09-05T06:38:30.551Z,22.91
2022-09-05T06:39:30.561Z,22.91
2022-09-05T06:40:32.320Z,22.91
2022-09-05T06:41:30.496Z,22.91
2022-09-05T06:42:43.504Z,22.90
2022-09-05T06:43:31.473Z,22.91
2022-09-05T06:44:30.460Z,22.91
2022-09-05T06:45:30.472Z,22.91
2022-09-05T06:46:51.489Z,22.91
2022-09-05T06:47:34.178Z,22.91
2022-09-05T06:48:45.993Z,22.91
2022-09-05T06:49:37.296Z,22.91
2022-09-05T06:50:31.394Z,22.91
2022-09-05T06:51:31.410Z,22.91
2022-09-05T06:52:30.550Z,22.91
2022-09-05T06:53:30.417Z,22.91
2022-09-05T06:54:30.370Z,22.91
2022-09-05T06:55:30.341Z,22.91
2022-09-05T06:56:30.332Z,22.91
2022-09-05T06:57:30.320Z,22.91
2022-09-05T06:58:30.318Z,22.93
2022-09-05T06:59:30.321Z,22.91
2022-09-05T07:00:30.353Z,22.91
2022-09-05T07:01:32.648Z,22.91
2022-09-05T07:02:59.555Z,22.91
2022-09-05T07:03:32.341Z,22.91
2022-09-05T07:05:23.739Z,22.91
2022-09-05T07:05:38.695Z,22.91
2022-09-05T07:06:49.459Z,22.91
2022-09-05T07:07:31.249Z,22.91
2022-09-05T07:08:35.694Z,22.90
2022-09-05T07:09:31.190Z,22.91
2022-09-05T07:10:40.695Z,22.93
2022-09-05T07:11:31.172Z,22.93
2022-09-05T07:12:30.647Z,22.91
2022-09-05T07:13:30.172Z,22.91
2022-09-05T07:14:30.135Z,22.94
2022-09-05T07:15:30.128Z,22.91
2022-09-05T07:16:38.379Z,22.93
2022-09-05T07:17:31.183Z,22.93
2022-09-05T07:18:30.098Z,22.93
2022-09-05T07:19:30.085Z,22.93
2022-09-05T07:20:30.070Z,22.93
2022-09-05T07:21:30.064Z,22.93
2022-09-05T07:22:46.927Z,22.94
2022-09-05T07:23:51.374Z,22.93
2022-09-05T07:24:54.248Z,22.93
2022-09-05T07:25:37.194Z,22.93
2022-09-05T07:26:51.485Z,22.91
2022-09-05T07:27:31.129Z,22.93
2022-09-05T07:28:30.485Z,22.91
2022-09-05T07:29:29.977Z,22.93
2022-09-05T07:30:29.967Z,22.93
2022-09-05T07:31:37.594Z,22.93
2022-09-05T07:32:30.938Z,22.94
2022-09-05T07:33:29.937Z,22.96
2022-09-05T07:34:29.920Z,22.93
2022-09-05T07:35:31.163Z,22.93
2022-09-05T07:36:30.921Z,22.94
2022-09-05T07:37:29.906Z,22.94
2022-09-05T07:38:45.555Z,22.94
2022-09-05T07:39:30.946Z,22.94
2022-09-05T07:40:29.956Z,22.94
2022-09-05T07:41:29.842Z,22.96
2022-09-05T07:42:29.849Z,22.94
2022-09-05T07:43:29.822Z,22.96
2022-09-05T07:44:29.810Z,22.94
2022-09-05T07:45:29.867Z,22.94
2022-09-05T07:46:29.788Z,22.94
2022-09-05T07:47:29.814Z,22.94
2022-09-05T07:48:35.174Z,22.93
2022-09-05T07:49:31.139Z,22.96
2022-09-05T07:54:57.807Z,22.94
2022-09-05T07:56:47.518Z,22.94
2022-09-05T07:56:54.789Z,22.96
2022-09-05T07:56:59.389Z,22.96
2022-09-05T07:57:00.914Z,22.94
2022-09-05T07:57:08.068Z,22.96
2022-09-05T07:57:08.251Z,22.96
2022-09-05T07:57:32.296Z,22.94
2022-09-05T07:58:30.657Z,22.94
2022-09-05T07:59:29.661Z,22.96
2022-09-05T08:00:29.877Z,22.96
2022-09-05T08:01:29.703Z,22.96
2022-09-05T08:02:29.636Z,22.96
2022-09-05T08:03:29.608Z,22.98
2022-09-05T08:04:29.690Z,22.96
2022-09-05T08:05:35.637Z,22.98
2022-09-05T08:07:22.250Z,22.96
2022-09-05T08:07:47.203Z,22.98
2022-09-05T08:08:30.668Z,22.98
2022-09-05T08:10:09.245Z,22.96
2022-09-05T08:10:35.911Z,22.98
2022-09-05T08:11:30.516Z,22.94
2022-09-05T08:12:29.505Z,22.96
2022-09-05T08:13:29.518Z,22.96
2022-09-05T08:14:44.693Z,22.96
2022-09-05T08:16:09.905Z,22.98
2022-09-05T08:16:30.488Z,22.98
2022-09-05T08:17:30.393Z,22.94
2022-09-05T08:18:29.459Z,22.94
2022-09-05T08:19:29.431Z,22.96
2022-09-05T08:20:29.418Z,22.96
2022-09-05T08:21:29.430Z,22.94
2022-09-05T08:22:29.395Z,22.96
2022-09-05T08:23:29.387Z,22.96
2022-09-05T08:24:29.374Z,22.96
2022-09-05T08:25:36.365Z,22.98
2022-09-05T08:26:30.427Z,22.94
2022-09-05T08:27:29.342Z,22.98
2022-09-05T08:28:39.124Z,22.96
2022-09-05T08:29:30.395Z,22.98
2022-09-05T08:30:29.459Z,22.98
2022-09-05T08:31:29.347Z,22.98
2022-09-05T08:32:33.357Z,22.96
2022-09-05T08:33:30.278Z,22.99
2022-09-05T08:34:44.601Z,22.98
2022-09-05T08:35:30.290Z,22.98
2022-09-05T08:36:29.389Z,22.96
2022-09-05T08:37:29.234Z,22.96
2022-09-05T08:38:29.224Z,22.98
2022-09-05T08:39:30.257Z,22.98
2022-09-05T08:40:29.201Z,22.96
2022-09-05T08:41:49.234Z,22.99
2022-09-05T08:42:30.181Z,22.98
2022-09-05T08:46:36.185Z,22.99
2022-09-05T08:46:42.505Z,22.99
2022-09-05T08:46:43.590Z,22.98
2022-09-05T08:46:44.899Z,22.96
2022-09-05T08:47:33.018Z,22.98
2022-09-05T08:48:30.113Z,22.99
2022-09-05T08:49:37.918Z,22.99
2022-09-05T08:50:30.127Z,22.99
2022-09-05T08:51:29.102Z,22.99
2022-09-05T08:52:29.094Z,22.99
2022-09-05T08:53:46.472Z,22.98
2022-09-05T08:54:30.047Z,22.99
2022-09-05T08:55:29.059Z,22.99
2022-09-05T08:56:29.029Z,22.99
2022-09-05T08:57:29.021Z,22.99
2022-09-05T08:58:29.033Z,22.99
2022-09-05T08:59:32.904Z,23.00
2022-09-05T09:00:31.464Z,23.00
2022-09-05T09:01:29.062Z,23.00
2022-09-05T09:02:47.790Z,22.99
2022-09-05T09:03:30.045Z,23.00
2022-09-05T09:05:00.837Z,23.00
2022-09-05T09:06:12.843Z,23.00
2022-09-05T09:06:29.918Z,23.00
2022-09-05T09:07:51.001Z,23.00
2022-09-05T09:08:29.920Z,23.02
2022-09-05T09:09:28.887Z,23.00
2022-09-05T09:10:28.877Z,23.02
2022-09-05T09:11:28.867Z,23.02
2022-09-05T09:12:28.853Z,23.00
2022-09-05T09:13:28.845Z,23.02
2022-09-05T09:14:30.851Z,23.03
2022-09-05T09:15:28.823Z,23.02
2022-09-05T09:16:28.827Z,23.02
2022-09-05T09:17:28.801Z,23.02
2022-09-05T09:18:31.858Z,23.02
2022-09-05T09:19:29.807Z,23.02
2022-09-05T09:20:28.767Z,23.02
2022-09-05T09:21:28.755Z,23.03
2022-09-05T09:22:28.742Z,23.02
2022-09-05T09:23:31.760Z,23.03
2022-09-05T09:24:28.720Z,23.03
2022-09-05T09:25:33.220Z,23.02
2022-09-05T09:26:29.722Z,23.02
2022-09-05T09:28:02.919Z,23.02
2022-09-05T09:28:48.391Z,23.02
2022-09-05T09:29:29.669Z,23.00
2022-09-05T09:30:28.658Z,23.03
2022-09-05T09:31:28.766Z,23.02
2022-09-05T09:32:28.637Z,23.03
2022-09-05T09:33:28.628Z,23.02
2022-09-05T09:34:28.614Z,23.02
2022-09-05T09:35:28.607Z,23.03
2022-09-05T09:36:28.613Z,23.02
2022-09-05T09:37:40.289Z,23.02
2022-09-05T09:38:29.570Z,23.02
2022-09-05T09:39:37.314Z,23.05
2022-09-05T09:40:29.547Z,23.02
2022-09-05T09:41:28.538Z,23.02
2022-09-05T09:42:33.496Z,23.02
2022-09-05T09:43:29.515Z,23.02
2022-09-05T09:44:28.506Z,23.00
2022-09-05T09:45:29.591Z,23.02
2022-09-05T09:46:28.566Z,23.03
2022-09-05T09:47:28.496Z,23.03
2022-09-05T09:48:28.462Z,23.02
2022-09-05T09:49:28.453Z,23.02
2022-09-05T09:50:28.442Z,23.03
2022-09-05T09:51:28.430Z,23.02
2022-09-05T09:52:28.418Z,23.02
2022-09-05T09:53:28.427Z,23.02
2022-09-05T09:54:28.419Z,23.02
2022-09-05T09:55:28.556Z,23.02
2022-09-05T09:56:28.377Z,23.02
2022-09-05T09:57:28.364Z,23.02
2022-09-05T09:58:29.344Z,23.02
2022-09-05T09:59:28.342Z,23.02
2022-09-05T10:00:28.355Z,23.02
2022-09-05T10:01:36.669Z,23.03
2022-09-05T10:03:27.006Z,23.03
2022-09-05T10:06:54.113Z,23.05
2022-09-05T10:10:34.568Z,23.05
2022-09-05T10:10:38.302Z,23.05
2022-09-05T10:10:45.168Z,23.06
2022-09-05T10:10:51.338Z,23.05
2022-09-05T10:10:54.222Z,23.03
2022-09-05T10:10:54.670Z,23.06
2022-09-05T10:10:56.273Z,23.03
2022-09-05T10:12:29.211Z,23.05
2022-09-05T10:13:28.189Z,23.03
2022-09-05T10:14:49.672Z,23.03
2022-09-05T10:15:31.559Z,23.03
2022-09-05T10:16:28.202Z,23.03
2022-09-05T10:17:28.147Z,23.05
2022-09-05T10:18:29.025Z,23.05
2022-09-05T10:20:29.691Z,23.06
2022-09-05T10:21:28.103Z,23.05
2022-09-05T10:22:37.206Z,23.05
2022-09-05T10:23:29.084Z,23.06
2022-09-05T10:24:28.070Z,23.06
2022-09-05T10:25:28.967Z,23.06
2022-09-05T10:26:28.076Z,23.05
2022-09-05T10:27:28.037Z,23.06
2022-09-05T10:28:28.029Z,23.05
2022-09-05T10:29:37.661Z,23.06
2022-09-05T10:31:39.851Z,23.05
2022-09-05T10:32:53.638Z,23.06
2022-09-05T10:35:07.489Z,23.05
2022-09-05T10:35:09.259Z,23.06
2022-09-05T10:35:11.772Z,23.06
2022-09-05T10:35:29.613Z,23.05
2022-09-05T10:36:28.033Z,23.08
2022-09-05T10:37:27.951Z,23.06
2022-09-05T10:38:27.937Z,23.08
2022-09-05T10:39:27.993Z,23.08
2022-09-05T10:40:27.897Z,23.08
2022-09-05T10:41:27.886Z,23.08
2022-09-05T10:42:27.872Z,23.06
2022-09-05T10:43:27.897Z,23.08
2022-09-05T10:44:27.854Z,23.06
2022-09-05T10:45:33.401Z,23.06
2022-09-05T10:46:49.403Z,23.06
2022-09-05T10:47:28.945Z,23.08
2022-09-05T10:48:27.811Z,23.08
2022-09-05T10:49:30.518Z,23.06
2022-09-05T10:50:27.786Z,23.08
2022-09-05T10:51:28.364Z,23.09
2022-09-05T10:52:27.768Z,23.08
2022-09-05T10:53:36.859Z,23.08
2022-09-05T10:54:28.744Z,23.08
2022-09-05T10:55:27.732Z,23.08
2022-09-05T10:56:28.682Z,23.06
2022-09-05T10:57:27.736Z,23.09
2022-09-05T10:59:26.059Z,23.08
2022-09-05T11:02:20.101Z,23.08
2022-09-05T11:02:24.316Z,23.08
2022-09-05T11:02:26.177Z,23.09
2022-09-05T11:02:38.315Z,23.09
2022-09-05T11:03:29.035Z,23.08
2022-09-05T11:04:27.659Z,23.10
2022-09-05T11:05:27.710Z,23.09
2022-09-05T11:06:27.638Z,23.08
2022-09-05T11:07:29.851Z,23.09
2022-09-05T11:08:27.596Z,23.06
2022-09-05T11:09:27.579Z,23.09
2022-09-05T11:10:27.572Z,23.09
2022-09-05T11:11:34.194Z,23.09
2022-09-05T11:12:28.595Z,23.09
2022-09-05T11:13:27.537Z,23.08
2022-09-05T11:14:27.531Z,23.09
2022-09-05T11:15:27.516Z,23.08
2022-09-05T11:16:27.562Z,23.08
2022-09-05T11:17:27.491Z,23.09
2022-09-05T11:18:30.384Z,23.08
2022-09-05T11:19:28.469Z,23.08
2022-09-05T11:20:35.079Z,23.08
2022-09-05T11:21:28.448Z,23.09
2022-09-05T11:22:27.468Z,23.09
2022-09-05T11:23:27.458Z,23.08
2022-09-05T11:24:27.739Z,23.08
2022-09-05T11:25:39.960Z,23.09
2022-09-05T11:26:28.429Z,23.09
2022-09-05T11:27:27.387Z,23.09
2022-09-05T11:28:27.373Z,23.09
2022-09-05T11:29:27.363Z,23.10
2022-09-05T11:30:30.493Z,23.10
2022-09-05T11:31:30.410Z,23.09
2022-09-05T11:37:58.391Z,23.10
2022-09-05T11:38:11.817Z,23.09
2022-09-05T11:39:51.657Z,23.09
2022-09-05T11:39:55.185Z,23.09
2022-09-05T11:40:00.458Z,23.10
2022-09-05T11:40:08.558Z,23.10
2022-09-05T11:40:09.884Z,23.09
2022-09-05T11:40:10.679Z,23.09
2022-09-05T11:40:44.797Z,23.10
2022-09-05T11:41:28.998Z,23.10
2022-09-05T11:42:27.220Z,23.10
2022-09-05T11:43:27.209Z,23.10
2022-09-05T11:44:27.536Z,23.10
2022-09-05T11:45:27.253Z,23.09
2022-09-05T11:46:29.587Z,23.09
2022-09-05T11:47:33.163Z,23.10
2022-09-05T11:48:28.156Z,23.10
2022-09-05T11:49:27.164Z,23.10
2022-09-05T11:50:27.258Z,23.09
2022-09-05T11:51:33.881Z,23.10
2022-09-05T11:52:28.109Z,23.10
2022-09-05T11:53:27.100Z,23.10
2022-09-05T11:54:27.089Z,23.10
2022-09-05T11:55:27.082Z,23.10
2022-09-05T11:56:28.979Z,23.10
2022-09-05T11:57:32.543Z,23.10
2022-09-05T11:58:45.402Z,23.08
2022-09-05T11:59:33.121Z,23.10
2022-09-05T12:00:33.818Z,23.09
2022-09-05T12:01:41.167Z,23.10
2022-09-05T12:02:28.102Z,23.10
2022-09-05T12:03:57.446Z,23.09
2022-09-05T12:04:27.999Z,23.08
2022-09-05T12:05:47.758Z,23.10
2022-09-05T12:06:28.008Z,23.10
2022-09-05T12:07:31.758Z,23.10
2022-09-05T12:08:28.766Z,23.10
2022-09-05T12:09:26.929Z,23.10
2022-09-05T12:10:46.512Z,23.10
2022-09-05T12:11:27.929Z,23.09
2022-09-05T12:12:38.660Z,23.10
2022-09-05T12:13:29.352Z,23.09
2022-09-05T12:14:26.891Z,23.10
2022-09-05T12:15:26.862Z,23.10
2022-09-05T12:16:27.302Z,23.09
2022-09-05T12:17:35.443Z,23.10
2022-09-05T12:18:27.905Z,23.09
2022-09-05T12:19:26.819Z,23.09
2022-09-05T12:20:26.807Z,23.09
2022-09-05T12:21:26.799Z,23.12
2022-09-05T12:22:26.804Z,23.08
2022-09-05T12:23:55.255Z,23.10
2022-09-05T12:25:25.478Z,23.10
2022-09-05T12:27:38.282Z,23.10
2022-09-05T12:27:40.032Z,23.09
2022-09-05T12:29:27.476Z,23.12
2022-09-05T12:29:36.316Z,23.09
2022-09-05T12:30:36.379Z,23.09
2022-09-05T12:32:34.469Z,23.09
2022-09-05T12:33:32.669Z,23.09
2022-09-05T12:36:01.639Z,23.10
2022-09-05T12:36:05.165Z,23.09
2022-09-05T12:36:11.067Z,23.10
2022-09-05T12:40:44.540Z,23.10
2022-09-05T12:40:54.865Z,23.10
2022-09-05T12:40:58.415Z,23.09
2022-09-05T12:40:59.344Z,23.09
2022-09-05T12:41:36.873Z,23.12
2022-09-05T12:41:44.087Z,23.09
2022-09-05T12:42:09.960Z,23.09
2022-09-05T12:42:37.103Z,23.10
2022-09-05T12:44:14.885Z,23.10
2022-09-05T12:44:42.204Z,23.12
2022-09-05T12:45:37.056Z,23.10
2022-09-05T12:46:27.523Z,23.10
2022-09-05T12:47:26.520Z,23.10
2022-09-05T12:48:38.346Z,23.10
2022-09-05T12:49:34.450Z,23.12
2022-09-05T12:50:27.478Z,23.10
2022-09-05T12:51:46.774Z,23.12
2022-09-05T12:52:27.457Z,23.12
2022-09-05T12:53:26.470Z,23.13
2022-09-05T12:54:33.732Z,23.12